Terminal Aerodrome Forecast
Issued by NWS Sterling, VA

Current Version | Previous Version | Graphics & Text | Print | Product List | Glossary On
Versions: 1 2 3 4 5 6 7 8 9 10 11 12 13 14 15 16 17 18 19 20 21 22 23 24 25 26 27 28
000
FTUS41 KLWX 241000 AAB
TAFIAD
TAF AMD
KIAD 241006Z 2410/2512 18014KT P6SM BKN008 OVC015
     FM241100 19014KT P6SM OVC020
     FM241600 20016G24KT P6SM BKN025
     FM241700 20017G26KT P6SM BKN050
     FM241900 20018G27KT P6SM SCT150
     FM250000 21011KT P6SM BKN250
     FM250500 25007KT P6SM SCT150=

USA.gov is the U.S. government's official web portal to all federal, state and local government web resources and services.